Time;durP1;ratioP1;P1;durP2;ratioP2;P2;SDS_P1;SDS_P2;PMS_P1;PMS_P2;Temp;Humidity;BMP_temperature;BMP_pressure;BME280_temperature;BME280_humidity;BME280_pressure;Samples;Min_cycle;Max_cycle;Signal;HPM_P1;HPM_P2
2023/01/18 00:01:51;;;;;;;;;19.00;18.00;;;;;6.73;60.40;-6545.56;4959978;28;45339;-94
2023/01/18 00:04:16;;;;;;;;;18.33;13.33;;;;;6.09;59.99;-6541.81;4976239;28;45465;-94
2023/01/18 00:06:41;;;;;;;;;16.67;14.67;;;;;6.03;60.07;-6541.47;4959736;28;45328;-93
2023/01/18 00:09:07;;;;;;;;;17.00;17.00;;;;;5.78;60.26;-6210.59;4967403;28;45657;-94
2023/01/18 00:11:32;;;;;;;;;12.00;11.33;;;;;6.05;60.58;-6541.63;4975271;28;48052;-95
2023/01/18 00:13:58;;;;;;;;;18.33;18.00;;;;;6.41;60.17;-6543.69;5008412;28;45528;-94
2023/01/18 00:16:24;;;;;;;;;18.67;15.67;;;;;5.44;60.23;-6208.81;5004515;28;45576;-94
2023/01/18 00:18:56;;;;;;;;;19.67;18.67;;;;;6.11;60.67;-6541.94;4952504;28;45849;-94
2023/01/18 00:21:22;;;;;;;;;21.67;19.67;;;;;6.17;60.58;-6212.66;4958772;28;48324;-95
2023/01/18 00:23:48;;;;;;;;;20.00;19.00;;;;;6.55;60.58;-6214.63;4958486;28;45322;-94
2023/01/18 00:26:13;;;;;;;;;20.67;17.00;;;;;6.52;60.97;-6544.34;4974545;28;45337;-94
2023/01/18 00:28:39;;;;;;;;;17.67;14.67;;;;;6.44;60.65;-6543.84;4942043;28;45454;-94
2023/01/18 00:31:14;;;;;;;;;22.00;19.33;;;;;6.11;61.05;-6212.34;4965443;28;47073;-93
2023/01/18 00:33:44;;;;;;;;;25.33;22.67;;;;;6.45;61.06;-6214.09;5004577;28;45643;-93
2023/01/18 00:36:10;;;;;;;;;21.75;20.75;;;;;5.77;61.18;-6210.53;4986177;27;45318;-94
2023/01/18 00:38:35;;;;;;;;;24.00;19.50;;;;;5.63;61.15;-6209.78;4968201;28;45319;-87
2023/01/18 00:41:00;;;;;;;;;31.50;26.50;;;;;6.38;61.17;-6213.72;4981089;28;45483;-87
2023/01/18 00:43:38;;;;;;;;;21.50;21.50;;;;;6.28;61.54;-6213.25;4957562;28;45550;-87
2023/01/18 00:46:16;;;;;;;;;26.00;19.00;;;;;5.86;61.48;-6211.03;4975238;28;45494;-87
2023/01/18 00:48:43;;;;;;;;;26.00;22.25;;;;;6.26;62.07;-6213.13;4975415;28;45552;-87
2023/01/18 00:51:11;;;;;;;;;28.75;24.75;;;;;5.81;62.12;-6540.22;4962354;28;47008;-86
2023/01/18 00:53:37;;;;;;;;;25.00;23.50;;;;;5.48;62.01;-6209.00;4961164;28;45636;-88
2023/01/18 00:56:07;;;;;;;;;22.50;19.75;;;;;5.59;62.44;-6538.94;4982821;28;45560;-87
2023/01/18 00:58:33;;;;;;;;;24.75;20.75;;;;;6.17;62.09;-6212.63;4957703;28;45450;-87
2023/01/18 01:00:59;;;;;;;;;27.25;23.00;;;;;5.78;62.37;-6210.56;4974712;28;45389;-87
2023/01/18 01:03:24;;;;;;;;;25.50;24.25;;;;;5.62;61.99;-6209.72;4996210;28;45738;-87
2023/01/18 01:08:33;;;;;;;;;20.50;19.75;;;;;5.76;62.50;-6539.94;4975072;28;45465;-87
2023/01/18 01:11:09;;;;;;;;;22.00;20.25;;;;;6.01;62.15;-6541.34;4974716;28;46532;-87
2023/01/18 01:27:16;;;;;;;;;22.50;18.50;;;;;5.95;62.39;-6541.03;4967256;28;45536;-87
2023/01/18 01:29:42;;;;;;;;;18.50;18.50;;;;;6.14;62.29;-6542.13;4976057;28;45721;-87
2023/01/18 01:32:07;;;;;;;;;19.33;18.33;;;;;5.57;62.43;-6538.78;4976158;28;46125;-87
2023/01/18 01:34:33;;;;;;;;;19.00;19.00;;;;;5.83;62.39;-6540.31;4976291;28;45402;-87
2023/01/18 01:36:58;;;;;;;;;17.00;16.00;;;;;5.64;62.34;-6539.25;4974800;28;45429;-87
2023/01/18 01:39:24;;;;;;;;;22.33;20.33;;;;;6.13;62.43;-6542.06;4977116;28;45400;-94
2023/01/18 01:41:50;;;;;;;;;21.67;19.33;;;;;5.85;62.39;-6210.97;4986506;28;48267;-94
2023/01/18 01:44:18;;;;;;;;;17.00;17.00;;;;;6.09;62.35;-6212.22;4968049;28;45428;-94
2023/01/18 01:46:50;;;;;;;;;18.33;16.33;;;;;6.09;62.47;-6212.22;4962190;28;45423;-93
2023/01/18 01:49:27;;;;;;;;;25.00;20.75;;;;;6.08;62.62;-6212.19;4960584;28;45496;-93
2023/01/18 01:52:01;;;;;;;;;22.00;18.75;;;;;5.75;62.30;-6210.41;4959982;28;48482;-93
2023/01/18 01:54:27;;;;;;;;;18.00;15.00;;;;;6.03;62.62;-6211.91;4941091;28;45422;-93
2023/01/18 01:57:04;;;;;;;;;17.33;16.00;;;;;5.31;62.70;-6208.09;4973898;28;45385;-92
2023/01/18 01:59:31;;;;;;;;;20.00;15.33;;;;;5.97;62.44;-5882.03;4955544;28;45498;-93
2023/01/18 02:01:56;;;;;;;;;23.67;18.33;;;;;5.97;62.38;-5882.00;4984970;28;48579;-93
2023/01/18 02:04:21;;;;;;;;;17.00;14.67;;;;;5.37;62.65;-6208.44;4963979;28;45408;-93
2023/01/18 02:06:47;;;;;;;;;16.67;15.00;;;;;5.77;62.41;-5881.06;4960750;28;45579;-93
2023/01/18 02:09:14;;;;;;;;;18.33;12.67;;;;;5.95;62.84;-5881.94;4956729;28;45505;-93
2023/01/18 02:11:41;;;;;;;;;24.75;18.00;;;;;5.94;62.42;-5881.88;4960064;28;47265;-93
2023/01/18 02:14:12;;;;;;;;;18.75;17.50;;;;;5.74;62.62;-5880.91;4961157;28;45479;-93
2023/01/18 02:17:05;;;;;;;;;18.67;17.00;;;;;5.61;62.76;-5880.31;5041945;28;45719;-93
2023/01/18 02:20:05;;;;;;;;;17.00;15.67;;;;;5.86;62.69;-5881.50;4978597;27;45410;-93
2023/01/18 02:22:58;;;;;;;;;12.67;11.00;;;;;5.82;62.59;-5881.28;4967585;28;47152;-95
2023/01/18 02:25:42;;;;;;;;;20.67;16.00;;;;;5.79;63.08;-5881.19;5014452;28;45262;-93
2023/01/18 02:28:16;;;;;;;;;16.67;14.33;;;;;5.78;63.12;-5881.09;4971548;28;45373;-93
2023/01/18 02:30:58;;;;;;;;;17.00;15.00;;;;;5.74;63.41;-5880.94;4964640;28;45414;-93
2023/01/18 02:33:35;;;;;;;;;15.50;13.25;;;;;5.48;63.16;-5879.72;4959894;28;47366;-93
2023/01/18 02:36:04;;;;;;;;;16.67;15.00;;;;;5.70;63.32;-5880.75;4989723;28;45699;-94
2023/01/18 02:38:44;;;;;;;;;18.33;16.67;;;;;5.60;63.34;-5550.84;4950008;28;45562;-87
2023/01/18 02:41:09;;;;;;;;;23.33;16.67;;;;;5.64;63.01;-5551.03;4962645;28;46801;-87
2023/01/18 02:46:29;;;;;;;;;17.33;16.67;;;;;5.25;62.96;-5549.41;4973368;28;45470;-88
2023/01/18 02:48:57;;;;;;;;;21.00;17.33;;;;;5.12;63.23;-5219.66;4968500;28;45575;-87
2023/01/18 02:51:23;;;;;;;;;20.33;18.33;;;;;5.04;63.22;-5548.50;4968500;28;45389;-87
2023/01/18 02:53:48;;;;;;;;;21.67;16.00;;;;;4.88;63.76;-5547.81;4978603;28;45526;-87
2023/01/18 02:56:25;;;;;;;;;24.00;21.00;;;;;5.46;63.64;-5550.28;4973295;28;45611;-86
2023/01/18 02:59:09;;;;;;;;;21.00;21.00;;;;;5.44;63.45;-5550.19;4950864;28;45478;-87
2023/01/18 03:01:43;;;;;;;;;23.00;19.75;;;;;4.72;64.18;-5547.13;4973588;28;45746;-87
2023/01/18 03:04:17;;;;;;;;;24.50;21.75;;;;;5.12;63.88;-5548.84;4955787;28;48256;-87
2023/01/18 03:06:50;;;;;;;;;22.75;20.75;;;;;4.88;64.32;-5876.84;4974721;28;45674;-87
2023/01/18 03:09:17;;;;;;;;;22.00;20.00;;;;;4.79;64.00;-5547.44;4970429;28;45492;-87
2023/01/18 03:11:48;;;;;;;;;17.50;16.50;;;;;5.33;64.22;-5879.00;4974876;28;45516;-87
2023/01/18 03:14:46;;;;;;;;;22.50;20.00;;;;;5.24;64.36;-5878.56;4972669;28;45583;-87
2023/01/18 03:17:23;;;;;;;;;24.00;21.50;;;;;4.78;64.35;-5547.38;4988508;28;45502;-88
2023/01/18 03:20:08;;;;;;;;;28.00;23.50;;;;;5.28;64.82;-5878.75;4953704;28;45514;-87
2023/01/18 03:25:43;;;;;;;;;25.25;22.00;;;;;5.24;64.63;-5878.56;4972785;28;45508;-87
2023/01/18 03:34:24;;;;;;;;;23.25;20.75;;;;;5.20;64.96;-5878.38;4973463;28;45686;-88
2023/01/18 03:36:52;;;;;;;;;25.25;23.75;;;;;4.98;64.69;-5877.31;4992694;28;45515;-87
2023/01/18 03:39:33;;;;;;;;;19.75;19.75;;;;;4.64;64.54;-5875.72;4978175;28;45497;-93
2023/01/18 03:42:05;;;;;;;;;20.50;19.75;;;;;4.77;64.58;-5547.34;4979566;28;45394;-94
2023/01/18 03:44:36;;;;;;;;;22.75;19.75;;;;;5.20;64.32;-5878.34;5004158;28;45447;-94
2023/01/18 03:47:04;;;;;;;;;18.25;18.25;;;;;5.18;65.01;-5549.09;5004872;28;47164;-93
2023/01/18 03:49:32;;;;;;;;;21.25;19.00;;;;;5.05;64.63;-5548.53;4997404;28;45609;-93
2023/01/18 03:52:15;;;;;;;;;26.25;20.50;;;;;5.14;64.57;-5548.91;5006169;28;45372;-93
2023/01/18 03:54:45;;;;;;;;;22.50;20.00;;;;;5.05;64.40;-5548.56;4982438;28;45804;-93
2023/01/18 03:57:44;;;;;;;;;21.50;15.50;;;;;4.52;64.30;-5546.28;5007580;28;47346;-93
2023/01/18 04:00:11;;;;;;;;;13.50;12.25;;;;;5.18;64.08;-5219.88;4980138;28;45895;-93
2023/01/18 04:02:37;;;;;;;;;21.25;17.50;;;;;5.16;64.19;-5219.78;5004853;28;45504;-93
2023/01/18 04:05:04;;;;;;;;;22.75;17.50;;;;;5.14;64.11;-5219.72;4982468;28;45551;-94
2023/01/18 04:07:30;;;;;;;;;16.25;15.25;;;;;4.74;64.29;-5218.25;4987391;28;47494;-93
2023/01/18 04:09:57;;;;;;;;;21.25;19.50;;;;;4.84;63.92;-5218.63;4996101;28;45826;-93
2023/01/18 04:12:22;;;;;;;;;21.50;18.50;;;;;5.13;64.08;-5219.69;4972264;28;45468;-93
2023/01/18 04:14:47;;;;;;;;;16.00;16.00;;;;;4.82;64.17;-5218.53;4967832;28;45565;-93
2023/01/18 04:17:13;;;;;;;;;16.75;16.00;;;;;4.69;63.93;-4889.09;4960654;28;48368;-94
2023/01/18 04:19:39;;;;;;;;;20.33;17.00;;;;;4.71;63.89;-4889.16;4962607;28;45352;-93
2023/01/18 04:22:05;;;;;;;;;21.50;18.00;;;;;5.05;63.93;-4890.22;4958482;28;45432;-93
2023/01/18 04:24:30;;;;;;;;;17.75;16.00;;;;;4.54;63.87;-4888.59;5011338;28;45387;-94
2023/01/18 04:26:56;;;;;;;;;19.50;15.75;;;;;4.71;64.57;-4560.13;4993690;28;47198;-93
2023/01/18 04:29:21;;;;;;;;;23.00;17.00;;;;;4.70;64.21;-4889.13;4966332;28;45780;-93
2023/01/18 04:31:46;;;;;;;;;22.00;19.33;;;;;4.40;63.89;-4888.16;4956371;28;45358;-94
2023/01/18 04:34:12;;;;;;;;;20.00;18.25;;;;;4.64;64.01;-4888.91;4961880;28;45391;-93
2023/01/18 04:36:37;;;;;;;;;21.00;19.25;;;;;4.77;64.02;-4889.34;4954096;28;47938;-94
2023/01/18 04:39:02;;;;;;;;;16.67;14.67;;;;;4.54;64.13;-5217.50;4950889;28;45328;-94
2023/01/18 04:41:28;;;;;;;;;20.33;15.67;;;;;4.75;64.30;-4889.28;4961951;28;45298;-93
2023/01/18 04:43:53;;;;;;;;;19.25;15.25;;;;;4.63;64.37;-4888.91;4974273;28;45533;-93
2023/01/18 04:46:19;;;;;;;;;17.67;16.67;;;;;4.98;64.36;-4890.00;4956872;28;46953;-93
2023/01/18 04:48:48;;;;;;;;;15.67;15.67;;;;;5.05;64.30;-4890.25;4968185;27;45866;-93
2023/01/18 04:51:14;;;;;;;;;19.00;15.33;;;;;4.60;64.04;-4888.78;4973819;28;45368;-92
2023/01/18 04:53:43;;;;;;;;;17.25;15.50;;;;;4.73;64.17;-5218.22;4959318;28;45453;-93
2023/01/18 04:56:10;;;;;;;;;20.25;17.25;;;;;5.07;64.14;-5219.50;4961355;28;47457;-92
2023/01/18 04:58:36;;;;;;;;;12.33;12.33;;;;;5.07;64.28;-5219.50;4965947;27;45492;-92
2023/01/18 05:01:03;;;;;;;;;20.75;19.75;;;;;4.67;64.44;-5218.00;4974946;28;45509;-93
2023/01/18 05:03:29;;;;;;;;;19.50;19.50;;;;;5.06;64.61;-4890.25;4939618;28;45522;-94
2023/01/18 05:05:54;;;;;;;;;20.25;17.25;;;;;4.31;63.93;-5216.66;4957163;28;47349;-94
2023/01/18 05:08:20;;;;;;;;;18.25;16.25;;;;;5.01;64.36;-5219.25;4968925;28;45825;-93
2023/01/18 05:10:45;;;;;;;;;21.75;20.75;;;;;4.63;64.17;-5217.84;5025934;28;45415;-93
2023/01/18 05:13:11;;;;;;;;;13.50;13.50;;;;;4.57;64.70;-4888.72;4971414;28;45563;-93
2023/01/18 05:15:36;;;;;;;;;20.00;16.25;;;;;5.02;64.47;-5219.28;4952950;28;47241;-92
2023/01/18 05:18:02;;;;;;;;;21.75;19.75;;;;;4.97;64.81;-4889.97;4950112;28;46232;-93
2023/01/18 05:20:27;;;;;;;;;19.50;19.50;;;;;4.47;64.90;-5217.22;4980086;28;45444;-93
2023/01/18 05:22:52;;;;;;;;;20.00;17.50;;;;;4.98;64.62;-4890.00;4960556;28;45384;-93
2023/01/18 05:25:18;;;;;;;;;23.50;20.00;;;;;4.65;64.47;-5217.94;4973456;28;47001;-93
2023/01/18 05:27:43;;;;;;;;;22.00;20.00;;;;;4.44;64.55;-4888.31;4958090;28;45836;-93
2023/01/18 05:30:10;;;;;;;;;17.50;15.25;;;;;4.88;64.90;-4889.66;4985459;27;45414;-94
2023/01/18 05:32:35;;;;;;;;;26.75;21.25;;;;;4.71;64.40;-4889.16;4974249;28;45374;-94
2023/01/18 05:35:04;;;;;;;;;28.75;26.75;;;;;4.86;64.75;-4560.53;4973303;28;47122;-93
2023/01/18 05:37:30;;;;;;;;;34.75;31.50;;;;;4.84;64.84;-4889.56;4975175;27;45523;-93
2023/01/18 05:39:56;;;;;;;;;29.25;26.25;;;;;4.67;64.72;-4889.00;4955744;28;45475;-86
2023/01/18 05:42:21;;;;;;;;;32.00;26.00;;;;;4.76;64.61;-4889.28;4969069;28;45546;-87
2023/01/18 05:44:46;;;;;;;;;23.50;19.00;;;;;4.59;64.83;-4888.78;4980880;28;46403;-86
2023/01/18 05:47:12;;;;;;;;;25.00;24.25;;;;;4.34;64.93;-4559.16;4985571;27;45506;-86
2023/01/18 05:49:37;;;;;;;;;24.75;23.25;;;;;4.10;64.74;-4887.19;5034639;27;45914;-81
2023/01/18 05:52:03;;;;;;;;;22.25;19.00;;;;;3.89;64.58;-4557.94;4974973;28;45563;-86
2023/01/18 05:54:28;;;;;;;;;21.75;19.25;;;;;4.73;64.98;-4889.22;4974495;28;46924;-85
2023/01/18 05:56:53;;;;;;;;;21.50;18.75;;;;;4.01;64.92;-4558.28;4977551;28;45492;-85
2023/01/18 05:59:19;;;;;;;;;18.75;14.75;;;;;4.29;65.13;-4559.00;5045637;28;45801;-86
2023/01/18 06:01:44;;;;;;;;;14.50;13.50;;;;;4.09;64.93;-4558.47;4975351;28;45394;-85
2023/01/18 06:04:10;;;;;;;;;18.50;18.50;;;;;4.44;65.35;-4888.28;4974993;28;45421;-85
2023/01/18 06:06:35;;;;;;;;;17.25;16.50;;;;;4.18;65.20;-4887.47;4975803;28;45532;-86
2023/01/18 06:09:00;;;;;;;;;21.50;17.50;;;;;4.46;65.30;-4888.34;4974652;28;46500;-85
2023/01/18 06:11:26;;;;;;;;;21.50;19.50;;;;;4.61;65.14;-4888.84;4976622;28;45519;-86
2023/01/18 06:13:52;;;;;;;;;19.75;17.00;;;;;4.37;65.18;-4888.06;4963295;28;47341;-86
2023/01/18 06:16:17;;;;;;;;;17.75;15.00;;;;;4.21;65.45;-4887.56;4978164;28;45375;-86
2023/01/18 06:18:43;;;;;;;;;19.50;19.50;;;;;4.34;65.72;-4887.97;5046992;28;45433;-86
2023/01/18 06:21:10;;;;;;;;;24.75;20.50;;;;;4.31;65.50;-4887.84;4970186;28;45610;-87
2023/01/18 06:23:35;;;;;;;;;18.75;16.50;;;;;4.49;65.39;-5217.31;4980285;28;45679;-85
2023/01/18 06:26:00;;;;;;;;;22.50;20.50;;;;;4.34;65.70;-4887.97;4957997;28;45487;-85
2023/01/18 06:28:26;;;;;;;;;16.00;15.00;;;;;4.12;65.33;-4887.28;4978037;28;45596;-87
2023/01/18 06:30:53;;;;;;;;;27.25;18.00;;;;;4.42;65.60;-4888.22;4974812;28;45498;-86
2023/01/18 06:33:19;;;;;;;;;21.00;19.00;;;;;3.91;65.62;-4558.00;4956173;28;46201;-87
2023/01/18 06:35:44;;;;;;;;;24.50;19.25;;;;;3.80;65.31;-4886.22;4973938;28;45453;-87
2023/01/18 06:38:09;;;;;;;;;18.50;16.25;;;;;4.43;65.72;-4888.25;4974663;28;45502;-91
2023/01/18 06:40:35;;;;;;;;;22.50;19.50;;;;;4.52;65.67;-4888.53;4956227;28;45401;-90
2023/01/18 06:43:01;;;;;;;;;19.00;18.25;;;;;3.90;65.43;-4886.56;4973291;28;45479;-90
2023/01/18 06:45:28;;;;;;;;;21.50;20.00;;;;;4.00;65.89;-4886.88;4973367;28;45766;-90
2023/01/18 06:47:54;;;;;;;;;29.50;21.00;;;;;3.41;65.34;-4884.97;5000015;28;45399;-90
2023/01/18 06:50:20;;;;;;;;;20.25;18.25;;;;;4.50;65.68;-4888.47;4958695;28;45516;-90
2023/01/18 06:52:45;;;;;;;;;25.00;20.00;;;;;4.52;66.04;-4888.53;4958969;28;47208;-84
2023/01/18 06:55:13;;;;;;;;;13.25;11.00;;;;;4.08;65.47;-4887.13;4955452;28;46498;-90
2023/01/18 06:57:38;;;;;;;;;24.75;21.50;;;;;4.53;65.75;-4888.56;4971287;28;45487;-90
2023/01/18 07:00:05;;;;;;;;;21.50;17.75;;;;;4.57;65.70;-5217.59;4985231;27;45474;-89
2023/01/18 07:02:35;;;;;;;;;22.75;20.75;;;;;4.56;65.68;-4888.69;4988830;28;46777;-90
2023/01/18 07:05:01;;;;;;;;;25.50;19.50;;;;;4.54;65.08;-4888.63;5006834;27;45413;-89
2023/01/18 07:07:27;;;;;;;;;17.00;13.75;;;;;4.32;65.39;-4559.09;5005411;28;45522;-89
2023/01/18 07:09:52;;;;;;;;;21.75;21.75;;;;;3.94;65.56;-4558.09;4970618;28;45519;-90
2023/01/18 07:12:18;;;;;;;;;23.00;22.00;;;;;4.54;65.45;-4888.59;4957313;28;47363;-88
2023/01/18 07:14:43;;;;;;;;;23.00;20.75;;;;;4.20;65.41;-4558.78;4956944;28;45365;-88
2023/01/18 07:17:08;;;;;;;;;20.00;19.00;;;;;4.53;65.44;-4888.56;4981043;28;46307;-88
2023/01/18 07:19:34;;;;;;;;;26.75;25.00;;;;;4.45;65.32;-4888.31;4976319;28;45799;-87
2023/01/18 07:22:00;;;;;;;;;21.75;20.75;;;;;4.48;65.05;-4559.50;4962441;28;47652;-88
2023/01/18 07:24:26;;;;;;;;;26.25;21.50;;;;;4.58;64.79;-4559.78;4991977;28;45803;-88
2023/01/18 07:26:51;;;;;;;;;26.00;21.50;;;;;3.99;64.79;-4558.22;4975540;28;45474;-88
2023/01/18 07:29:16;;;;;;;;;26.75;21.75;;;;;3.61;65.03;-4557.19;4963590;27;45655;-88
2023/01/18 07:31:42;;;;;;;;;24.50;21.75;;;;;4.61;64.50;-4559.88;4976792;28;45931;-88
2023/01/18 07:34:10;;;;;;;;;22.25;22.25;;;;;4.58;65.09;-4559.78;4990411;28;45629;-88
2023/01/18 07:36:38;;;;;;;;;23.00;20.00;;;;;3.50;64.65;-4556.91;4985343;28;45461;-88
2023/01/18 07:39:05;;;;;;;;;29.75;22.00;;;;;4.62;65.18;-4888.84;4973272;28;45384;-86
2023/01/18 07:41:31;;;;;;;;;28.25;25.00;;;;;4.56;64.93;-4559.72;4957029;28;48182;-87
2023/01/18 07:43:56;;;;;;;;;38.00;33.50;;;;;4.33;64.93;-4887.94;4979186;28;45345;-86
2023/01/18 07:46:24;;;;;;;;;56.75;45.50;;;;;3.78;65.18;-4886.16;4975964;28;45481;-86
2023/01/18 07:48:51;;;;;;;;;54.75;43.25;;;;;3.62;64.99;-5214.06;4973794;28;45414;-85
2023/01/18 07:51:17;;;;;;;;;38.50;29.75;;;;;4.71;64.81;-5218.13;4971236;28;45505;-85
2023/01/18 07:53:43;;;;;;;;;44.75;38.25;;;;;4.72;64.82;-5218.19;4944918;28;45451;-86
2023/01/18 07:56:12;;;;;;;;;42.75;36.75;;;;;3.75;65.19;-5214.53;4975363;28;45319;-85
2023/01/18 07:58:39;;;;;;;;;28.50;27.00;;;;;4.54;65.37;-5217.50;4974027;28;45687;-86
2023/01/18 08:01:08;;;;;;;;;29.00;28.25;;;;;3.85;65.16;-5214.94;4968333;28;45764;-86
2023/01/18 08:03:35;;;;;;;;;26.25;23.50;;;;;4.78;65.20;-5218.38;4997768;28;45383;-86
2023/01/18 08:06:01;;;;;;;;;31.00;28.25;;;;;4.60;65.07;-5217.72;4996394;28;45402;-86
2023/01/18 08:08:27;;;;;;;;;29.75;23.25;;;;;4.78;65.17;-5218.38;4956162;28;45553;-86
2023/01/18 08:10:55;;;;;;;;;57.25;44.75;;;;;4.71;64.69;-5218.13;4973072;28;45535;-86
2023/01/18 08:13:21;;;;;;;;;41.25;36.00;;;;;4.77;65.22;-5218.34;4973109;28;45548;-85
2023/01/18 08:15:46;;;;;;;;;45.75;35.00;;;;;4.65;65.29;-5217.91;4972825;28;45456;-86
2023/01/18 08:18:13;;;;;;;;;34.25;31.00;;;;;4.80;65.41;-5547.47;5016219;28;45413;-86
2023/01/18 08:20:41;;;;;;;;;32.50;26.25;;;;;4.79;65.10;-5547.44;4981875;28;48413;-86
2023/01/18 08:23:06;;;;;;;;;34.00;32.00;;;;;3.98;65.40;-5543.97;4973175;28;45466;-86
2023/01/18 08:25:32;;;;;;;;;31.75;31.75;;;;;4.78;65.14;-5547.38;4955467;28;45588;-85
2023/01/18 08:28:00;;;;;;;;;45.75;38.25;;;;;4.37;65.40;-5545.66;4955821;28;45585;-86
2023/01/18 08:30:27;;;;;;;;;48.50;38.50;;;;;4.86;64.75;-5547.72;4972438;28;45745;-86
2023/01/18 08:32:57;;;;;;;;;45.50;37.50;;;;;4.87;64.94;-5547.78;5017543;28;45545;-86
2023/01/18 08:35:24;;;;;;;;;34.75;29.50;;;;;4.35;64.77;-5545.56;4984915;28;45420;-85
2023/01/18 08:37:51;;;;;;;;;36.25;31.25;;;;;4.39;64.65;-5545.75;4952250;28;45609;-85
2023/01/18 08:40:17;;;;;;;;;31.25;26.25;;;;;4.38;65.39;-5874.44;4970056;28;45549;-86
2023/01/18 08:42:43;;;;;;;;;28.50;26.75;;;;;4.63;65.12;-5875.63;4972919;28;45379;-86
2023/01/18 08:45:09;;;;;;;;;28.75;26.50;;;;;4.00;65.07;-5872.66;5034041;28;45521;-85
2023/01/18 08:47:34;;;;;;;;;35.50;34.50;;;;;4.41;65.27;-5874.59;4971640;28;45347;-86
2023/01/18 08:50:00;;;;;;;;;39.00;32.25;;;;;3.76;64.91;-6199.84;4978852;28;46064;-86
2023/01/18 08:52:26;;;;;;;;;35.25;31.75;;;;;4.14;65.54;-6201.88;4975275;28;45417;-86
2023/01/18 08:54:51;;;;;;;;;34.75;26.25;;;;;3.96;64.88;-6200.94;4982871;28;45662;-86
2023/01/18 08:57:16;;;;;;;;;40.25;33.00;;;;;4.71;64.84;-6204.94;4976009;28;45335;-86
2023/01/18 08:59:42;;;;;;;;;40.75;35.00;;;;;4.22;65.01;-6202.31;4974974;28;46163;-86
2023/01/18 09:02:09;;;;;;;;;34.00;29.50;;;;;5.07;65.05;-6206.84;4957780;28;45407;-85
2023/01/18 09:04:34;;;;;;;;;35.50;29.25;;;;;3.62;65.16;-6199.09;4975518;28;45440;-86
2023/01/18 09:07:00;;;;;;;;;31.25;29.00;;;;;5.06;65.16;-6535.84;4958085;28;46473;-86
2023/01/18 09:09:25;;;;;;;;;25.00;22.75;;;;;5.17;64.68;-6536.50;4972045;28;45510;-85
2023/01/18 09:11:51;;;;;;;;;30.50;21.75;;;;;4.79;64.94;-6534.28;4966135;28;45469;-86
2023/01/18 09:14:17;;;;;;;;;25.25;22.00;;;;;4.82;64.84;-6863.38;4954736;28;45466;-85
2023/01/18 09:16:42;;;;;;;;;27.25;24.50;;;;;4.99;64.36;-6535.44;4966360;28;45646;-85
2023/01/18 09:19:08;;;;;;;;;20.25;19.75;;;;;4.79;64.90;-6534.28;4974981;28;46381;-86
2023/01/18 09:21:34;;;;;;;;;23.75;23.50;;;;;5.18;64.64;-6865.63;4975579;28;45418;-86
2023/01/18 09:24:00;;;;;;;;;28.75;25.50;;;;;5.09;64.73;-6865.06;4975190;28;45494;-86
2023/01/18 09:26:26;;;;;;;;;30.50;26.00;;;;;4.84;64.96;-7192.41;4975838;28;45413;-86
2023/01/18 09:28:52;;;;;;;;;23.75;22.00;;;;;5.45;64.85;-7196.59;4974881;28;45421;-86
2023/01/18 09:31:20;;;;;;;;;23.50;21.25;;;;;5.50;64.88;-7196.91;4975069;28;45504;-85
2023/01/18 09:33:46;;;;;;;;;18.50;18.25;;;;;4.97;64.33;-7193.25;4963258;28;45520;-85
2023/01/18 09:36:12;;;;;;;;;26.00;21.50;;;;;5.65;64.87;-7527.22;4975134;28;45454;-86
2023/01/18 09:38:40;;;;;;;;;21.00;19.00;;;;;5.70;63.80;-7198.31;4975100;28;45540;-87
2023/01/18 09:41:20;;;;;;;;;21.00;19.67;;;;;5.74;64.17;-7527.88;4979859;28;45382;-89
2023/01/18 09:43:52;;;;;;;;;23.67;18.33;;;;;5.86;63.88;-7528.81;4975020;28;45557;-89
2023/01/18 09:46:20;;;;;;;;;23.75;21.50;;;;;5.66;63.60;-8185.81;4976435;28;45712;-88
2023/01/18 09:48:53;;;;;;;;;24.25;20.75;;;;;6.03;63.61;-8188.94;4957477;28;46015;-89
2023/01/18 09:51:38;;;;;;;;;19.00;18.33;;;;;6.13;63.73;-8519.25;4962951;28;45532;-89
2023/01/18 09:54:22;;;;;;;;;16.67;15.67;;;;;6.02;63.30;-7859.44;5008194;28;45570;-89
2023/01/18 09:56:57;;;;;;;;;18.67;18.67;;;;;6.27;63.08;-7861.41;4973787;28;45341;-88
2023/01/18 09:59:53;;;;;;;;;20.67;18.00;;;;;6.31;62.87;-7861.75;4968601;28;46202;-88
2023/01/18 10:02:23;;;;;;;;;17.33;17.33;;;;;6.42;62.69;-7862.59;4966091;28;45788;-88
2023/01/18 10:04:57;;;;;;;;;17.00;17.00;;;;;6.47;62.72;-8192.69;4975557;28;45823;-89
2023/01/18 10:07:26;;;;;;;;;17.33;16.00;;;;;6.55;62.40;-8193.34;4975037;28;45427;-89
2023/01/18 10:09:55;;;;;;;;;13.00;13.00;;;;;6.51;62.42;-8193.00;4961791;28;46309;-89
2023/01/18 10:12:56;;;;;;;;;13.33;13.00;;;;;6.70;62.05;-8194.63;4973749;28;45470;-88
2023/01/18 10:15:33;;;;;;;;;11.00;11.00;;;;;6.53;62.07;-8522.84;4995024;28;45436;-89
2023/01/18 10:17:59;;;;;;;;;15.00;11.00;;;;;6.56;62.17;-8852.78;4994750;28;45603;-89
2023/01/18 10:20:37;;;;;;;;;15.67;12.00;;;;;6.64;61.95;-8523.78;4975211;28;47455;-88
2023/01/18 10:23:05;;;;;;;;;13.33;12.33;;;;;7.01;62.04;-8857.03;4983524;28;45404;-89
2023/01/18 10:25:32;;;;;;;;;11.67;10.00;;;;;6.87;61.25;-8525.91;4977800;28;45786;-88
2023/01/18 10:27:57;;;;;;;;;12.00;9.33;;;;;7.04;61.17;-8527.41;4995225;28;45498;-88
2023/01/18 10:30:54;;;;;;;;;12.00;10.00;;;;;7.04;61.38;-8527.41;4994385;28;46052;-89
2023/01/18 10:33:25;;;;;;;;;10.33;9.33;;;;;6.71;61.24;-8524.47;4975316;28;46107;-88
2023/01/18 10:35:55;;;;;;;;;7.67;6.00;;;;;7.11;61.44;-8528.06;5001210;28;45349;-89
2023/01/18 10:38:25;;;;;;;;;8.33;8.33;;;;;6.66;61.63;-8523.97;5011570;28;46339;-85
2023/01/18 10:41:01;;;;;;;;;11.00;8.67;;;;;6.31;61.11;-8520.91;4994076;28;45546;-86
2023/01/18 10:43:29;;;;;;;;;9.67;7.00;;;;;6.68;60.85;-8524.22;4994044;28;45632;-86
2023/01/18 10:45:55;;;;;;;;;6.67;6.00;;;;;6.51;61.18;-8193.03;4994687;28;45556;-86
2023/01/18 10:48:32;;;;;;;;;11.00;6.67;;;;;6.85;61.52;-8525.72;4994396;28;45680;-86
2023/01/18 10:51:04;;;;;;;;;6.00;6.00;;;;;7.24;61.81;-8859.22;4994451;28;45460;-85
2023/01/18 10:53:32;;;;;;;;;8.67;5.00;;;;;6.82;61.88;-9184.97;4974254;28;45589;-86
2023/01/18 10:56:09;;;;;;;;;9.67;5.67;;;;;6.67;61.32;-9183.53;5015293;28;45499;-85
2023/01/18 10:58:49;;;;;;;;;10.00;5.00;;;;;7.40;61.84;-9520.84;4962579;28;45482;-86
2023/01/18 11:01:22;;;;;;;;;10.33;7.00;;;;;7.46;61.77;-9521.44;4973951;28;45940;-86
2023/01/18 11:04:21;;;;;;;;;9.00;9.00;;;;;7.47;61.47;-9521.56;4974194;28;45422;-86
2023/01/18 11:06:49;;;;;;;;;9.00;5.33;;;;;7.49;61.27;-9191.69;4974086;28;45751;-86
2023/01/18 11:09:50;;;;;;;;;6.00;5.33;;;;;7.57;61.22;-9522.69;4972914;28;45450;-86
2023/01/18 11:12:33;;;;;;;;;7.33;6.67;;;;;7.60;60.73;-9192.81;5041170;28;45668;-86
2023/01/18 11:15:14;;;;;;;;;7.00;5.67;;;;;7.58;61.14;-9192.59;4973885;28;45467;-86
2023/01/18 11:17:43;;;;;;;;;5.00;5.00;;;;;7.61;60.80;-9192.97;4955869;28;45531;-86
2023/01/18 11:20:17;;;;;;;;;6.00;6.00;;;;;7.66;61.18;-9523.59;4974546;28;45433;-86
2023/01/18 11:22:59;;;;;;;;;10.00;7.00;;;;;7.03;60.65;-9187.06;4973656;28;47225;-86
2023/01/18 11:25:46;;;;;;;;;11.00;10.33;;;;;7.60;60.60;-9523.00;4955098;28;45434;-86
2023/01/18 11:28:18;;;;;;;;;10.00;8.33;;;;;7.34;61.04;-9520.25;4956482;28;45444;-85
2023/01/18 11:31:22;;;;;;;;;9.00;7.00;;;;;7.81;60.75;-9525.16;4994788;28;45486;-86
2023/01/18 11:33:53;;;;;;;;;8.33;7.67;;;;;7.52;60.69;-9852.19;4993163;28;45506;-86
2023/01/18 11:36:32;;;;;;;;;7.33;7.00;;;;;7.44;60.64;-9521.28;4993293;28;45601;-86
2023/01/18 11:39:28;;;;;;;;;10.00;8.00;;;;;7.91;60.58;-9856.47;4993216;28;45497;-88
2023/01/18 11:42:12;;;;;;;;;6.00;6.00;;;;;7.95;60.78;-9526.66;4979943;28;45502;-88
2023/01/18 11:45:11;;;;;;;;;7.33;6.00;;;;;7.98;60.68;-9527.00;4993385;28;45465;-88
2023/01/18 11:47:46;;;;;;;;;6.67;5.67;;;;;7.90;60.40;-9526.09;4993698;28;45480;-89
2023/01/18 11:50:23;;;;;;;;;11.33;8.00;;;;;8.08;60.42;-9858.41;4993396;28;45479;-89
2023/01/18 11:52:53;;;;;;;;;7.67;7.67;;;;;8.16;60.58;-9859.31;4993668;28;45457;-88
2023/01/18 11:55:30;;;;;;;;;7.67;7.67;;;;;8.23;60.23;-10190.47;4999139;28;45494;-88
2023/01/18 11:57:56;;;;;;;;;12.00;8.67;;;;;8.00;60.09;-10187.81;4981466;28;45468;-89
2023/01/18 12:00:27;;;;;;;;;5.00;5.00;;;;;8.42;59.92;-10192.66;4993484;28;45564;-89
2023/01/18 12:03:10;;;;;;;;;4.67;4.67;;;;;8.50;58.75;-9863.03;4993533;28;45570;-88
2023/01/18 12:05:51;;;;;;;;;5.67;5.67;;;;;8.60;59.04;-9864.09;4977027;28;47834;-88
2023/01/18 12:08:37;;;;;;;;;4.67;4.00;;;;;8.71;58.98;-9865.34;4992637;28;45756;-89